sensor_id;sensor_type;location;lat;lon;timestamp;P1;durP1;ratioP1;P2;durP2;ratioP2
84879;SDS011;75141;51.398;21.154;2024-01-30T00:00:01;44.97;;;19.02;;
84879;SDS011;75141;51.398;21.154;2024-01-30T00:01:03;41.03;;;18.80;;
84879;SDS011;75141;51.398;21.154;2024-01-30T00:02:20;42.03;;;18.90;;
84879;SDS011;75141;51.398;21.154;2024-01-30T00:03:21;48.33;;;19.85;;
84879;SDS011;75141;51.398;21.154;2024-01-30T00:04:22;47.15;;;19.45;;
84879;SDS011;75141;51.398;21.154;2024-01-30T00:05:23;46.00;;;18.90;;
84879;SDS011;75141;51.398;21.154;2024-01-30T00:06:23;43.85;;;18.83;;
84879;SDS011;75141;51.398;21.154;2024-01-30T00:07:24;40.65;;;18.08;;
84879;SDS011;75141;51.398;21.154;2024-01-30T00:08:25;38.78;;;17.85;;
84879;SDS011;75141;51.398;21.154;2024-01-30T00:09:26;42.85;;;18.55;;
84879;SDS011;75141;51.398;21.154;2024-01-30T00:10:26;47.55;;;20.08;;
84879;SDS011;75141;51.398;21.154;2024-01-30T00:11:27;42.50;;;19.70;;
84879;SDS011;75141;51.398;21.154;2024-01-30T00:12:29;41.42;;;18.45;;
84879;SDS011;75141;51.398;21.154;2024-01-30T00:13:30;43.85;;;19.20;;
84879;SDS011;75141;51.398;21.154;2024-01-30T00:14:30;38.67;;;17.38;;
84879;SDS011;75141;51.398;21.154;2024-01-30T00:15:31;46.53;;;18.75;;
84879;SDS011;75141;51.398;21.154;2024-01-30T00:16:32;41.90;;;17.90;;
84879;SDS011;75141;51.398;21.154;2024-01-30T00:17:32;40.47;;;18.60;;
84879;SDS011;75141;51.398;21.154;2024-01-30T00:18:33;40.35;;;17.60;;
84879;SDS011;75141;51.398;21.154;2024-01-30T00:19:33;37.65;;;18.52;;
84879;SDS011;75141;51.398;21.154;2024-01-30T00:20:34;38.13;;;17.52;;
84879;SDS011;75141;51.398;21.154;2024-01-30T00:21:35;41.58;;;17.98;;
84879;SDS011;75141;51.398;21.154;2024-01-30T00:22:35;44.03;;;17.80;;
84879;SDS011;75141;51.398;21.154;2024-01-30T00:23:36;40.65;;;17.90;;
84879;SDS011;75141;51.398;21.154;2024-01-30T00:24:37;42.50;;;17.77;;
84879;SDS011;75141;51.398;21.154;2024-01-30T00:25:37;38.90;;;17.02;;
84879;SDS011;75141;51.398;21.154;2024-01-30T00:26:38;38.03;;;16.60;;
84879;SDS011;75141;51.398;21.154;2024-01-30T00:27:38;39.30;;;17.23;;
84879;SDS011;75141;51.398;21.154;2024-01-30T00:28:39;43.17;;;17.50;;
84879;SDS011;75141;51.398;21.154;2024-01-30T00:29:40;41.92;;;17.73;;
84879;SDS011;75141;51.398;21.154;2024-01-30T00:30:40;40.70;;;18.90;;
84879;SDS011;75141;51.398;21.154;2024-01-30T00:31:41;33.50;;;16.48;;
84879;SDS011;75141;51.398;21.154;2024-01-30T00:32:42;39.65;;;17.17;;
84879;SDS011;75141;51.398;21.154;2024-01-30T00:33:43;41.97;;;18.02;;
84879;SDS011;75141;51.398;21.154;2024-01-30T00:34:43;39.03;;;17.05;;
84879;SDS011;75141;51.398;21.154;2024-01-30T00:35:44;42.28;;;17.63;;
84879;SDS011;75141;51.398;21.154;2024-01-30T00:36:45;37.88;;;16.92;;
84879;SDS011;75141;51.398;21.154;2024-01-30T00:37:45;42.70;;;19.30;;
84879;SDS011;75141;51.398;21.154;2024-01-30T00:38:46;42.30;;;17.75;;
84879;SDS011;75141;51.398;21.154;2024-01-30T00:39:47;40.13;;;18.25;;
84879;SDS011;75141;51.398;21.154;2024-01-30T00:40:48;39.38;;;17.67;;
84879;SDS011;75141;51.398;21.154;2024-01-30T00:41:48;47.17;;;17.67;;
84879;SDS011;75141;51.398;21.154;2024-01-30T00:42:49;38.05;;;15.75;;
84879;SDS011;75141;51.398;21.154;2024-01-30T00:43:49;42.42;;;16.95;;
84879;SDS011;75141;51.398;21.154;2024-01-30T00:44:51;36.08;;;15.68;;
84879;SDS011;75141;51.398;21.154;2024-01-30T00:45:51;37.22;;;16.60;;
84879;SDS011;75141;51.398;21.154;2024-01-30T00:46:55;39.15;;;18.35;;
84879;SDS011;75141;51.398;21.154;2024-01-30T00:47:55;39.22;;;17.08;;
84879;SDS011;75141;51.398;21.154;2024-01-30T00:48:56;37.30;;;16.23;;
84879;SDS011;75141;51.398;21.154;2024-01-30T00:49:57;44.15;;;18.52;;
84879;SDS011;75141;51.398;21.154;2024-01-30T00:50:57;34.42;;;16.70;;
84879;SDS011;75141;51.398;21.154;2024-01-30T00:51:58;42.22;;;18.85;;
84879;SDS011;75141;51.398;21.154;2024-01-30T00:52:59;42.15;;;17.73;;
84879;SDS011;75141;51.398;21.154;2024-01-30T00:53:59;37.60;;;17.02;;
84879;SDS011;75141;51.398;21.154;2024-01-30T00:55:00;41.13;;;17.98;;
84879;SDS011;75141;51.398;21.154;2024-01-30T00:56:00;42.03;;;16.95;;
84879;SDS011;75141;51.398;21.154;2024-01-30T00:57:01;41.17;;;16.73;;
84879;SDS011;75141;51.398;21.154;2024-01-30T00:58:02;41.53;;;16.85;;
84879;SDS011;75141;51.398;21.154;2024-01-30T00:59:03;39.40;;;17.30;;
84879;SDS011;75141;51.398;21.154;2024-01-30T01:00:04;34.22;;;16.45;;
84879;SDS011;75141;51.398;21.154;2024-01-30T01:01:06;39.10;;;17.48;;
84879;SDS011;75141;51.398;21.154;2024-01-30T01:02:07;35.20;;;16.75;;
84879;SDS011;75141;51.398;21.154;2024-01-30T01:03:08;35.10;;;16.05;;
84879;SDS011;75141;51.398;21.154;2024-01-30T01:04:09;40.00;;;16.58;;
84879;SDS011;75141;51.398;21.154;2024-01-30T01:05:10;39.15;;;17.02;;
84879;SDS011;75141;51.398;21.154;2024-01-30T01:06:10;37.17;;;17.05;;
84879;SDS011;75141;51.398;21.154;2024-01-30T01:07:11;37.58;;;17.50;;
84879;SDS011;75141;51.398;21.154;2024-01-30T01:08:12;37.05;;;16.83;;
84879;SDS011;75141;51.398;21.154;2024-01-30T01:09:12;39.08;;;17.00;;
84879;SDS011;75141;51.398;21.154;2024-01-30T01:10:13;42.20;;;17.75;;
84879;SDS011;75141;51.398;21.154;2024-01-30T01:11:14;38.97;;;17.08;;
84879;SDS011;75141;51.398;21.154;2024-01-30T01:12:14;37.50;;;16.85;;
84879;SDS011;75141;51.398;21.154;2024-01-30T01:13:16;42.38;;;17.13;;
84879;SDS011;75141;51.398;21.154;2024-01-30T01:14:17;39.92;;;16.80;;
84879;SDS011;75141;51.398;21.154;2024-01-30T01:15:17;36.28;;;15.63;;
84879;SDS011;75141;51.398;21.154;2024-01-30T01:16:18;40.85;;;16.90;;
84879;SDS011;75141;51.398;21.154;2024-01-30T01:17:19;38.10;;;16.13;;
84879;SDS011;75141;51.398;21.154;2024-01-30T01:18:19;37.05;;;16.67;;
84879;SDS011;75141;51.398;21.154;2024-01-30T01:19:20;37.38;;;16.40;;
84879;SDS011;75141;51.398;21.154;2024-01-30T01:20:20;39.72;;;17.02;;
84879;SDS011;75141;51.398;21.154;2024-01-30T01:21:21;40.78;;;17.50;;
84879;SDS011;75141;51.398;21.154;2024-01-30T01:22:22;36.53;;;16.92;;
84879;SDS011;75141;51.398;21.154;2024-01-30T01:23:23;39.42;;;17.00;;
84879;SDS011;75141;51.398;21.154;2024-01-30T01:24:23;34.78;;;15.75;;
84879;SDS011;75141;51.398;21.154;2024-01-30T01:25:25;37.50;;;16.75;;
84879;SDS011;75141;51.398;21.154;2024-01-30T01:26:25;40.05;;;17.73;;
84879;SDS011;75141;51.398;21.154;2024-01-30T01:27:26;39.40;;;17.65;;
84879;SDS011;75141;51.398;21.154;2024-01-30T01:28:27;39.78;;;17.63;;
84879;SDS011;75141;51.398;21.154;2024-01-30T01:29:27;38.50;;;17.80;;
84879;SDS011;75141;51.398;21.154;2024-01-30T01:30:31;38.80;;;17.45;;
84879;SDS011;75141;51.398;21.154;2024-01-30T01:31:31;38.65;;;16.92;;
84879;SDS011;75141;51.398;21.154;2024-01-30T01:32:32;36.53;;;16.30;;
84879;SDS011;75141;51.398;21.154;2024-01-30T01:33:33;35.75;;;16.90;;
84879;SDS011;75141;51.398;21.154;2024-01-30T01:34:33;36.25;;;16.00;;
84879;SDS011;75141;51.398;21.154;2024-01-30T01:35:34;36.85;;;17.00;;
84879;SDS011;75141;51.398;21.154;2024-01-30T01:36:35;37.85;;;17.08;;
84879;SDS011;75141;51.398;21.154;2024-01-30T01:37:35;39.55;;;16.70;;
84879;SDS011;75141;51.398;21.154;2024-01-30T01:38:36;38.65;;;17.27;;
84879;SDS011;75141;51.398;21.154;2024-01-30T01:39:36;37.90;;;16.35;;
84879;SDS011;75141;51.398;21.154;2024-01-30T01:40:37;36.35;;;16.38;;
84879;SDS011;75141;51.398;21.154;2024-01-30T01:41:40;38.80;;;16.17;;
84879;SDS011;75141;51.398;21.154;2024-01-30T01:42:40;38.15;;;16.02;;
84879;SDS011;75141;51.398;21.154;2024-01-30T01:43:41;37.03;;;15.57;;
84879;SDS011;75141;51.398;21.154;2024-01-30T01:44:42;36.10;;;16.00;;
84879;SDS011;75141;51.398;21.154;2024-01-30T01:45:42;39.80;;;16.92;;
84879;SDS011;75141;51.398;21.154;2024-01-30T01:46:43;30.05;;;14.73;;
84879;SDS011;75141;51.398;21.154;2024-01-30T01:47:44;34.50;;;15.13;;
84879;SDS011;75141;51.398;21.154;2024-01-30T01:48:46;36.83;;;16.15;;
84879;SDS011;75141;51.398;21.154;2024-01-30T01:49:47;39.20;;;15.93;;
84879;SDS011;75141;51.398;21.154;2024-01-30T01:50:48;31.00;;;15.27;;
84879;SDS011;75141;51.398;21.154;2024-01-30T01:51:49;35.70;;;15.68;;
84879;SDS011;75141;51.398;21.154;2024-01-30T01:52:50;34.28;;;15.43;;
84879;SDS011;75141;51.398;21.154;2024-01-30T01:53:51;34.92;;;15.20;;
84879;SDS011;75141;51.398;21.154;2024-01-30T01:54:52;37.70;;;15.38;;
84879;SDS011;75141;51.398;21.154;2024-01-30T01:55:53;34.05;;;15.65;;
84879;SDS011;75141;51.398;21.154;2024-01-30T01:56:54;34.78;;;15.85;;
84879;SDS011;75141;51.398;21.154;2024-01-30T01:57:55;31.92;;;14.43;;
84879;SDS011;75141;51.398;21.154;2024-01-30T01:58:56;34.38;;;15.02;;
84879;SDS011;75141;51.398;21.154;2024-01-30T02:00:00;35.25;;;15.45;;
84879;SDS011;75141;51.398;21.154;2024-01-30T02:01:01;34.33;;;15.30;;
84879;SDS011;75141;51.398;21.154;2024-01-30T02:02:02;33.92;;;15.68;;
84879;SDS011;75141;51.398;21.154;2024-01-30T02:03:04;29.13;;;14.98;;
84879;SDS011;75141;51.398;21.154;2024-01-30T02:04:05;33.15;;;14.77;;
84879;SDS011;75141;51.398;21.154;2024-01-30T02:05:05;34.90;;;15.70;;
84879;SDS011;75141;51.398;21.154;2024-01-30T02:06:06;35.88;;;16.13;;
84879;SDS011;75141;51.398;21.154;2024-01-30T02:07:07;34.00;;;15.73;;
84879;SDS011;75141;51.398;21.154;2024-01-30T02:08:07;35.40;;;17.67;;
84879;SDS011;75141;51.398;21.154;2024-01-30T02:09:08;33.65;;;14.93;;
84879;SDS011;75141;51.398;21.154;2024-01-30T02:10:09;31.58;;;15.05;;
84879;SDS011;75141;51.398;21.154;2024-01-30T02:11:10;35.05;;;15.73;;
84879;SDS011;75141;51.398;21.154;2024-01-30T02:12:11;34.95;;;15.20;;
84879;SDS011;75141;51.398;21.154;2024-01-30T02:13:12;35.88;;;14.73;;
84879;SDS011;75141;51.398;21.154;2024-01-30T02:14:12;37.08;;;15.35;;
84879;SDS011;75141;51.398;21.154;2024-01-30T02:15:13;34.22;;;16.48;;
84879;SDS011;75141;51.398;21.154;2024-01-30T02:16:14;35.08;;;14.73;;
84879;SDS011;75141;51.398;21.154;2024-01-30T02:17:17;34.60;;;15.85;;
84879;SDS011;75141;51.398;21.154;2024-01-30T02:18:19;40.15;;;15.38;;
84879;SDS011;75141;51.398;21.154;2024-01-30T02:19:20;34.42;;;15.45;;
84879;SDS011;75141;51.398;21.154;2024-01-30T02:20:21;32.08;;;14.38;;
84879;SDS011;75141;51.398;21.154;2024-01-30T02:21:22;33.40;;;15.90;;
84879;SDS011;75141;51.398;21.154;2024-01-30T02:22:23;33.45;;;15.02;;
84879;SDS011;75141;51.398;21.154;2024-01-30T02:23:24;34.70;;;15.35;;
84879;SDS011;75141;51.398;21.154;2024-01-30T02:24:28;34.72;;;15.68;;
84879;SDS011;75141;51.398;21.154;2024-01-30T02:25:32;35.28;;;16.48;;
84879;SDS011;75141;51.398;21.154;2024-01-30T02:26:33;37.67;;;14.82;;
84879;SDS011;75141;51.398;21.154;2024-01-30T02:27:34;32.38;;;15.90;;
84879;SDS011;75141;51.398;21.154;2024-01-30T02:28:34;35.55;;;15.43;;
84879;SDS011;75141;51.398;21.154;2024-01-30T02:29:35;36.58;;;16.75;;
84879;SDS011;75141;51.398;21.154;2024-01-30T02:30:35;34.72;;;15.85;;
84879;SDS011;75141;51.398;21.154;2024-01-30T02:31:36;35.90;;;15.35;;
84879;SDS011;75141;51.398;21.154;2024-01-30T02:32:37;38.15;;;15.48;;
84879;SDS011;75141;51.398;21.154;2024-01-30T02:33:37;35.30;;;16.52;;
84879;SDS011;75141;51.398;21.154;2024-01-30T02:34:38;34.50;;;14.95;;
84879;SDS011;75141;51.398;21.154;2024-01-30T02:35:39;34.63;;;14.55;;
84879;SDS011;75141;51.398;21.154;2024-01-30T02:36:43;31.92;;;15.43;;
84879;SDS011;75141;51.398;21.154;2024-01-30T02:37:44;33.70;;;13.30;;
84879;SDS011;75141;51.398;21.154;2024-01-30T02:38:44;32.33;;;14.98;;
84879;SDS011;75141;51.398;21.154;2024-01-30T02:39:47;38.83;;;16.40;;
84879;SDS011;75141;51.398;21.154;2024-01-30T02:40:47;34.60;;;15.43;;
84879;SDS011;75141;51.398;21.154;2024-01-30T02:41:48;37.08;;;16.60;;
84879;SDS011;75141;51.398;21.154;2024-01-30T02:42:48;34.28;;;15.98;;
84879;SDS011;75141;51.398;21.154;2024-01-30T02:43:49;30.85;;;14.10;;
84879;SDS011;75141;51.398;21.154;2024-01-30T02:44:50;33.65;;;14.93;;
84879;SDS011;75141;51.398;21.154;2024-01-30T02:45:50;35.00;;;16.33;;
84879;SDS011;75141;51.398;21.154;2024-01-30T02:46:51;33.65;;;14.90;;
84879;SDS011;75141;51.398;21.154;2024-01-30T02:47:54;28.40;;;14.32;;
84879;SDS011;75141;51.398;21.154;2024-01-30T02:48:55;35.33;;;14.90;;
84879;SDS011;75141;51.398;21.154;2024-01-30T02:49:56;30.08;;;14.43;;
84879;SDS011;75141;51.398;21.154;2024-01-30T02:50:56;34.47;;;14.90;;
84879;SDS011;75141;51.398;21.154;2024-01-30T02:51:58;35.55;;;15.85;;
84879;SDS011;75141;51.398;21.154;2024-01-30T02:52:59;33.45;;;15.00;;
84879;SDS011;75141;51.398;21.154;2024-01-30T02:53:59;34.15;;;15.18;;
84879;SDS011;75141;51.398;21.154;2024-01-30T02:55:00;33.10;;;13.73;;
84879;SDS011;75141;51.398;21.154;2024-01-30T02:56:02;29.00;;;13.95;;
84879;SDS011;75141;51.398;21.154;2024-01-30T02:57:02;30.63;;;14.18;;
84879;SDS011;75141;51.398;21.154;2024-01-30T02:58:03;34.17;;;14.50;;
84879;SDS011;75141;51.398;21.154;2024-01-30T02:59:04;34.00;;;14.23;;
84879;SDS011;75141;51.398;21.154;2024-01-30T03:00:05;32.05;;;14.18;;
84879;SDS011;75141;51.398;21.154;2024-01-30T03:01:06;35.22;;;14.90;;
84879;SDS011;75141;51.398;21.154;2024-01-30T03:02:07;33.10;;;14.85;;
84879;SDS011;75141;51.398;21.154;2024-01-30T03:03:08;31.30;;;14.43;;
84879;SDS011;75141;51.398;21.154;2024-01-30T03:04:08;32.33;;;14.85;;
84879;SDS011;75141;51.398;21.154;2024-01-30T03:05:09;36.47;;;15.27;;
84879;SDS011;75141;51.398;21.154;2024-01-30T03:06:10;32.55;;;15.10;;
84879;SDS011;75141;51.398;21.154;2024-01-30T03:07:10;33.30;;;15.88;;
84879;SDS011;75141;51.398;21.154;2024-01-30T03:08:11;30.95;;;14.45;;
84879;SDS011;75141;51.398;21.154;2024-01-30T03:09:12;37.20;;;15.27;;
84879;SDS011;75141;51.398;21.154;2024-01-30T03:10:13;34.05;;;14.70;;
84879;SDS011;75141;51.398;21.154;2024-01-30T03:11:13;32.17;;;14.02;;
84879;SDS011;75141;51.398;21.154;2024-01-30T03:12:14;33.08;;;14.55;;
84879;SDS011;75141;51.398;21.154;2024-01-30T03:13:14;32.60;;;14.90;;
84879;SDS011;75141;51.398;21.154;2024-01-30T03:14:15;32.45;;;14.75;;
84879;SDS011;75141;51.398;21.154;2024-01-30T03:15:16;33.83;;;15.77;;
84879;SDS011;75141;51.398;21.154;2024-01-30T03:16:17;31.63;;;14.73;;
84879;SDS011;75141;51.398;21.154;2024-01-30T03:17:17;32.17;;;14.38;;
84879;SDS011;75141;51.398;21.154;2024-01-30T03:18:19;32.85;;;15.00;;
84879;SDS011;75141;51.398;21.154;2024-01-30T03:19:19;32.33;;;13.98;;
84879;SDS011;75141;51.398;21.154;2024-01-30T03:20:20;36.90;;;15.20;;
84879;SDS011;75141;51.398;21.154;2024-01-30T03:21:21;35.47;;;13.90;;
84879;SDS011;75141;51.398;21.154;2024-01-30T03:22:22;34.45;;;15.70;;
84879;SDS011;75141;51.398;21.154;2024-01-30T03:23:22;42.90;;;15.82;;
84879;SDS011;75141;51.398;21.154;2024-01-30T03:24:23;35.13;;;15.48;;
84879;SDS011;75141;51.398;21.154;2024-01-30T03:25:24;30.83;;;14.00;;
84879;SDS011;75141;51.398;21.154;2024-01-30T03:26:24;32.45;;;14.23;;
84879;SDS011;75141;51.398;21.154;2024-01-30T03:27:25;36.53;;;16.48;;
84879;SDS011;75141;51.398;21.154;2024-01-30T03:28:26;34.97;;;15.23;;
84879;SDS011;75141;51.398;21.154;2024-01-30T03:29:26;35.67;;;14.55;;
84879;SDS011;75141;51.398;21.154;2024-01-30T03:30:27;34.22;;;15.05;;
84879;SDS011;75141;51.398;21.154;2024-01-30T03:31:28;33.78;;;14.65;;
84879;SDS011;75141;51.398;21.154;2024-01-30T03:32:28;30.30;;;14.70;;
84879;SDS011;75141;51.398;21.154;2024-01-30T03:33:29;34.72;;;14.80;;
84879;SDS011;75141;51.398;21.154;2024-01-30T03:34:30;29.55;;;14.05;;
84879;SDS011;75141;51.398;21.154;2024-01-30T03:35:31;30.35;;;14.27;;
84879;SDS011;75141;51.398;21.154;2024-01-30T03:36:31;31.85;;;13.48;;
84879;SDS011;75141;51.398;21.154;2024-01-30T03:37:34;34.28;;;15.23;;
84879;SDS011;75141;51.398;21.154;2024-01-30T03:38:35;33.40;;;14.32;;
84879;SDS011;75141;51.398;21.154;2024-01-30T03:39:36;34.55;;;14.95;;
84879;SDS011;75141;51.398;21.154;2024-01-30T03:40:37;33.42;;;14.45;;
84879;SDS011;75141;51.398;21.154;2024-01-30T03:41:37;35.83;;;16.40;;
84879;SDS011;75141;51.398;21.154;2024-01-30T03:42:38;27.27;;;13.68;;
84879;SDS011;75141;51.398;21.154;2024-01-30T03:43:39;32.42;;;14.57;;
84879;SDS011;75141;51.398;21.154;2024-01-30T03:44:42;34.17;;;15.18;;
84879;SDS011;75141;51.398;21.154;2024-01-30T03:45:43;31.73;;;13.98;;
84879;SDS011;75141;51.398;21.154;2024-01-30T03:46:43;34.13;;;14.32;;
84879;SDS011;75141;51.398;21.154;2024-01-30T03:47:44;36.80;;;15.90;;
84879;SDS011;75141;51.398;21.154;2024-01-30T03:48:45;32.72;;;13.80;;
84879;SDS011;75141;51.398;21.154;2024-01-30T03:49:45;35.70;;;15.63;;
84879;SDS011;75141;51.398;21.154;2024-01-30T03:50:46;29.17;;;14.50;;
84879;SDS011;75141;51.398;21.154;2024-01-30T03:51:47;31.10;;;15.02;;
84879;SDS011;75141;51.398;21.154;2024-01-30T03:52:48;30.75;;;14.45;;
84879;SDS011;75141;51.398;21.154;2024-01-30T03:53:48;33.38;;;14.55;;
84879;SDS011;75141;51.398;21.154;2024-01-30T03:54:49;34.85;;;14.80;;
84879;SDS011;75141;51.398;21.154;2024-01-30T03:55:50;33.65;;;14.95;;
84879;SDS011;75141;51.398;21.154;2024-01-30T03:56:50;36.20;;;14.40;;
84879;SDS011;75141;51.398;21.154;2024-01-30T03:57:51;39.85;;;15.25;;
84879;SDS011;75141;51.398;21.154;2024-01-30T03:58:52;31.77;;;15.45;;
84879;SDS011;75141;51.398;21.154;2024-01-30T03:59:52;33.70;;;14.05;;
84879;SDS011;75141;51.398;21.154;2024-01-30T04:00:56;30.23;;;14.05;;
84879;SDS011;75141;51.398;21.154;2024-01-30T04:01:57;37.10;;;15.05;;
84879;SDS011;75141;51.398;21.154;2024-01-30T04:02:57;34.00;;;14.45;;
84879;SDS011;75141;51.398;21.154;2024-01-30T04:03:58;30.13;;;14.10;;
84879;SDS011;75141;51.398;21.154;2024-01-30T04:04:59;32.72;;;15.32;;
84879;SDS011;75141;51.398;21.154;2024-01-30T04:05:59;30.73;;;15.18;;
84879;SDS011;75141;51.398;21.154;2024-01-30T04:07:00;34.15;;;15.55;;
84879;SDS011;75141;51.398;21.154;2024-01-30T04:08:02;34.25;;;13.70;;
84879;SDS011;75141;51.398;21.154;2024-01-30T04:09:03;28.23;;;14.05;;
84879;SDS011;75141;51.398;21.154;2024-01-30T04:10:04;31.88;;;14.60;;
84879;SDS011;75141;51.398;21.154;2024-01-30T04:11:06;34.45;;;15.95;;
84879;SDS011;75141;51.398;21.154;2024-01-30T04:12:06;31.02;;;14.55;;
84879;SDS011;75141;51.398;21.154;2024-01-30T04:13:08;30.55;;;13.90;;
84879;SDS011;75141;51.398;21.154;2024-01-30T04:14:09;36.08;;;15.05;;
84879;SDS011;75141;51.398;21.154;2024-01-30T04:15:10;28.52;;;14.05;;
84879;SDS011;75141;51.398;21.154;2024-01-30T04:16:18;31.38;;;14.77;;
84879;SDS011;75141;51.398;21.154;2024-01-30T04:17:22;35.10;;;14.57;;
84879;SDS011;75141;51.398;21.154;2024-01-30T04:18:23;34.45;;;14.77;;
84879;SDS011;75141;51.398;21.154;2024-01-30T04:19:23;29.73;;;14.30;;
84879;SDS011;75141;51.398;21.154;2024-01-30T04:20:24;33.80;;;14.07;;
84879;SDS011;75141;51.398;21.154;2024-01-30T04:21:25;36.60;;;14.93;;
84879;SDS011;75141;51.398;21.154;2024-01-30T04:22:26;32.22;;;13.55;;
84879;SDS011;75141;51.398;21.154;2024-01-30T04:23:26;31.30;;;14.85;;
84879;SDS011;75141;51.398;21.154;2024-01-30T04:24:27;31.33;;;14.43;;
84879;SDS011;75141;51.398;21.154;2024-01-30T04:25:35;31.88;;;13.52;;
84879;SDS011;75141;51.398;21.154;2024-01-30T04:26:36;29.00;;;14.18;;
84879;SDS011;75141;51.398;21.154;2024-01-30T04:27:37;29.75;;;13.75;;
84879;SDS011;75141;51.398;21.154;2024-01-30T04:28:37;33.88;;;15.02;;
84879;SDS011;75141;51.398;21.154;2024-01-30T04:29:38;28.35;;;14.20;;
84879;SDS011;75141;51.398;21.154;2024-01-30T04:30:39;32.22;;;14.02;;
84879;SDS011;75141;51.398;21.154;2024-01-30T04:31:40;32.15;;;14.18;;
84879;SDS011;75141;51.398;21.154;2024-01-30T04:32:40;33.55;;;15.60;;
84879;SDS011;75141;51.398;21.154;2024-01-30T04:33:41;30.90;;;14.90;;
84879;SDS011;75141;51.398;21.154;2024-01-30T04:34:42;34.25;;;13.88;;
84879;SDS011;75141;51.398;21.154;2024-01-30T04:35:42;35.08;;;15.07;;
84879;SDS011;75141;51.398;21.154;2024-01-30T04:36:44;34.10;;;14.02;;
84879;SDS011;75141;51.398;21.154;2024-01-30T04:37:45;34.80;;;13.50;;
84879;SDS011;75141;51.398;21.154;2024-01-30T04:38:46;32.75;;;14.88;;
84879;SDS011;75141;51.398;21.154;2024-01-30T04:39:47;35.00;;;15.93;;
84879;SDS011;75141;51.398;21.154;2024-01-30T04:40:50;33.00;;;14.38;;
84879;SDS011;75141;51.398;21.154;2024-01-30T04:41:51;29.80;;;13.48;;
84879;SDS011;75141;51.398;21.154;2024-01-30T04:42:52;31.57;;;13.80;;
84879;SDS011;75141;51.398;21.154;2024-01-30T04:43:53;32.75;;;13.40;;
84879;SDS011;75141;51.398;21.154;2024-01-30T04:44:53;32.83;;;14.85;;
84879;SDS011;75141;51.398;21.154;2024-01-30T04:45:54;31.42;;;15.40;;
84879;SDS011;75141;51.398;21.154;2024-01-30T04:46:55;30.58;;;14.77;;
84879;SDS011;75141;51.398;21.154;2024-01-30T04:47:59;32.10;;;15.13;;
84879;SDS011;75141;51.398;21.154;2024-01-30T04:48:59;29.50;;;13.80;;
84879;SDS011;75141;51.398;21.154;2024-01-30T04:50:01;28.95;;;14.20;;
84879;SDS011;75141;51.398;21.154;2024-01-30T04:51:01;33.88;;;13.93;;
84879;SDS011;75141;51.398;21.154;2024-01-30T04:52:03;32.88;;;14.77;;
84879;SDS011;75141;51.398;21.154;2024-01-30T04:53:04;32.60;;;14.60;;
84879;SDS011;75141;51.398;21.154;2024-01-30T04:54:05;33.22;;;14.82;;
84879;SDS011;75141;51.398;21.154;2024-01-30T04:55:05;33.90;;;14.82;;
84879;SDS011;75141;51.398;21.154;2024-01-30T04:56:06;33.08;;;14.70;;
84879;SDS011;75141;51.398;21.154;2024-01-30T04:57:07;34.78;;;14.60;;
84879;SDS011;75141;51.398;21.154;2024-01-30T04:58:11;34.55;;;14.20;;
84879;SDS011;75141;51.398;21.154;2024-01-30T04:59:12;32.47;;;15.32;;
84879;SDS011;75141;51.398;21.154;2024-01-30T05:00:13;32.17;;;14.13;;
84879;SDS011;75141;51.398;21.154;2024-01-30T05:01:16;33.17;;;14.65;;
84879;SDS011;75141;51.398;21.154;2024-01-30T05:02:17;36.20;;;15.68;;
84879;SDS011;75141;51.398;21.154;2024-01-30T05:03:19;33.45;;;15.70;;
84879;SDS011;75141;51.398;21.154;2024-01-30T05:04:19;36.25;;;15.88;;
84879;SDS011;75141;51.398;21.154;2024-01-30T05:05:20;32.58;;;15.00;;
84879;SDS011;75141;51.398;21.154;2024-01-30T05:06:25;33.45;;;14.73;;
84879;SDS011;75141;51.398;21.154;2024-01-30T05:07:26;35.25;;;14.55;;
84879;SDS011;75141;51.398;21.154;2024-01-30T05:08:27;31.23;;;13.88;;
84879;SDS011;75141;51.398;21.154;2024-01-30T05:09:27;29.88;;;14.15;;
84879;SDS011;75141;51.398;21.154;2024-01-30T05:10:29;33.05;;;14.43;;
84879;SDS011;75141;51.398;21.154;2024-01-30T05:11:30;36.72;;;14.65;;
84879;SDS011;75141;51.398;21.154;2024-01-30T05:12:31;32.75;;;14.98;;
84879;SDS011;75141;51.398;21.154;2024-01-30T05:13:31;29.15;;;14.10;;
84879;SDS011;75141;51.398;21.154;2024-01-30T05:14:32;29.17;;;13.98;;
84879;SDS011;75141;51.398;21.154;2024-01-30T05:15:33;31.02;;;13.88;;
84879;SDS011;75141;51.398;21.154;2024-01-30T05:16:33;30.80;;;14.35;;
84879;SDS011;75141;51.398;21.154;2024-01-30T05:17:34;32.80;;;14.35;;
84879;SDS011;75141;51.398;21.154;2024-01-30T05:18:35;33.83;;;14.18;;
84879;SDS011;75141;51.398;21.154;2024-01-30T05:19:35;34.67;;;16.02;;
84879;SDS011;75141;51.398;21.154;2024-01-30T05:20:36;31.70;;;14.95;;
84879;SDS011;75141;51.398;21.154;2024-01-30T05:21:37;33.90;;;15.40;;
84879;SDS011;75141;51.398;21.154;2024-01-30T05:22:37;32.70;;;15.55;;
84879;SDS011;75141;51.398;21.154;2024-01-30T05:23:38;32.25;;;14.93;;
84879;SDS011;75141;51.398;21.154;2024-01-30T05:24:39;31.50;;;14.55;;
84879;SDS011;75141;51.398;21.154;2024-01-30T05:25:40;36.95;;;15.98;;
84879;SDS011;75141;51.398;21.154;2024-01-30T05:26:41;31.15;;;14.27;;
84879;SDS011;75141;51.398;21.154;2024-01-30T05:27:42;31.77;;;15.05;;
84879;SDS011;75141;51.398;21.154;2024-01-30T05:28:42;29.23;;;14.00;;
84879;SDS011;75141;51.398;21.154;2024-01-30T05:29:44;32.60;;;14.77;;
84879;SDS011;75141;51.398;21.154;2024-01-30T05:30:46;34.55;;;15.23;;
84879;SDS011;75141;51.398;21.154;2024-01-30T05:31:47;29.60;;;14.35;;
84879;SDS011;75141;51.398;21.154;2024-01-30T05:32:47;31.77;;;15.18;;
84879;SDS011;75141;51.398;21.154;2024-01-30T05:33:48;33.33;;;14.50;;
84879;SDS011;75141;51.398;21.154;2024-01-30T05:34:49;34.47;;;15.05;;
84879;SDS011;75141;51.398;21.154;2024-01-30T05:35:50;31.00;;;14.63;;
84879;SDS011;75141;51.398;21.154;2024-01-30T05:36:54;35.33;;;13.77;;
84879;SDS011;75141;51.398;21.154;2024-01-30T05:37:55;33.13;;;14.43;;
84879;SDS011;75141;51.398;21.154;2024-01-30T05:38:56;32.05;;;14.00;;
84879;SDS011;75141;51.398;21.154;2024-01-30T05:39:56;31.75;;;14.85;;
84879;SDS011;75141;51.398;21.154;2024-01-30T05:40:57;30.70;;;14.60;;
84879;SDS011;75141;51.398;21.154;2024-01-30T05:41:58;37.55;;;14.80;;
84879;SDS011;75141;51.398;21.154;2024-01-30T05:42:59;39.10;;;14.95;;
84879;SDS011;75141;51.398;21.154;2024-01-30T05:44:01;34.10;;;13.82;;
84879;SDS011;75141;51.398;21.154;2024-01-30T05:45:02;30.55;;;14.52;;
84879;SDS011;75141;51.398;21.154;2024-01-30T05:46:03;33.17;;;14.73;;
84879;SDS011;75141;51.398;21.154;2024-01-30T05:47:04;34.47;;;14.82;;
84879;SDS011;75141;51.398;21.154;2024-01-30T05:48:04;31.88;;;14.93;;
84879;SDS011;75141;51.398;21.154;2024-01-30T05:49:05;33.67;;;14.95;;
84879;SDS011;75141;51.398;21.154;2024-01-30T05:50:06;31.67;;;14.27;;
84879;SDS011;75141;51.398;21.154;2024-01-30T05:51:07;30.08;;;14.75;;